KDHT/DHT METAR and TAF weather

Enter ICAO airport designator
Station Type Date Time Source
KDHT METAR 2019/02/23 03:06 UTC NOAA

KDHT 230306Z AUTO 13018KT 4SM BR BKN003 03/02 A2973 RMK AO2 T00330017


Station Type Date Time Source
KDHT Decoded METAR 2019/02/23 03:06 UTC NOAA

DALHART MUNICIPAL AIRPORT, TX, United States (KDHT) 36-01N 102-33W 1217M
Feb 22, 2019 - 10:06 PM EST / 2019.02.23 0306 UTC
Wind: from the SE (130 degrees) at 21 MPH (18 KT):0
Visibility: 4 mile(s):0
Sky conditions: mostly cloudy
Weather: mist
Temperature: 37.9 F (3.3 C)
Dew Point: 35.1 F (1.7 C)
Relative Humidity: 89%
Pressure (altimeter): 29.73 in. Hg (1006 hPa)
ob: KDHT 230306Z AUTO 13018KT 4SM BR BKN003 03/02 A2973 RMK AO2 T00330017
cycle: 3

Station Type Date Time Source
KDHT TAF 2019/02/23 03:18 UTC NOAA

TAF
AMD KDHT 230317Z 2303/2324 14018KT 4SM BR BKN004
FM230500 14018KT P6SM VCSH BKN010
TEMPO 2305/2309 2SM SHRA OVC009
FM231000 19014G23KT 3SM BR OVC025
FM231500 30031G43KT P6SM BKN050 PROB30 2315/2318 4SM -RASN OVC025


Example: see airport list